sensor_id;sensor_type;location;lat;lon;timestamp;pressure;altitude;pressure_sealevel;temperature;humidity
61128;BME280;47013;42.664;23.242;2023-04-27T00:01:27;93740.34;;;7.85;55.51
61128;BME280;47013;42.664;23.242;2023-04-27T00:03:53;93738.81;;;7.81;56.18
61128;BME280;47013;42.664;23.242;2023-04-27T00:06:18;93749.22;;;7.79;56.41
61128;BME280;47013;42.664;23.242;2023-04-27T00:08:43;93751.53;;;7.80;55.98
61128;BME280;47013;42.664;23.242;2023-04-27T00:11:09;93755.38;;;7.86;56.11
61128;BME280;47013;42.664;23.242;2023-04-27T00:13:34;93756.94;;;7.84;56.06
61128;BME280;47013;42.664;23.242;2023-04-27T00:15:59;93755.78;;;7.85;55.47
61128;BME280;47013;42.664;23.242;2023-04-27T00:18:27;93756.22;;;7.65;56.34
61128;BME280;47013;42.664;23.242;2023-04-27T00:20:52;93755.47;;;7.58;57.04
61128;BME280;47013;42.664;23.242;2023-04-27T00:23:17;93752.38;;;7.63;56.75
61128;BME280;47013;42.664;23.242;2023-04-27T00:25:43;93752.34;;;7.74;57.46
61128;BME280;47013;42.664;23.242;2023-04-27T00:28:08;93761.63;;;7.69;57.63
61128;BME280;47013;42.664;23.242;2023-04-27T00:30:33;93755.03;;;7.74;56.70
61128;BME280;47013;42.664;23.242;2023-04-27T00:32:59;93753.50;;;7.73;55.33
61128;BME280;47013;42.664;23.242;2023-04-27T00:35:25;93754.25;;;7.77;56.00
61128;BME280;47013;42.664;23.242;2023-04-27T00:37:52;93755.03;;;7.77;55.85
61128;BME280;47013;42.664;23.242;2023-04-27T00:40:19;93747.72;;;7.71;56.48
61128;BME280;47013;42.664;23.242;2023-04-27T00:42:44;93747.69;;;7.78;55.77
61128;BME280;47013;42.664;23.242;2023-04-27T00:45:09;93749.25;;;7.68;56.52
61128;BME280;47013;42.664;23.242;2023-04-27T00:47:35;93750.06;;;7.61;56.18
61128;BME280;47013;42.664;23.242;2023-04-27T00:50:00;93753.94;;;7.57;56.13
61128;BME280;47013;42.664;23.242;2023-04-27T00:52:25;93750.06;;;7.54;56.05
61128;BME280;47013;42.664;23.242;2023-04-27T00:54:51;93746.66;;;7.43;56.80
61128;BME280;47013;42.664;23.242;2023-04-27T00:57:16;93754.34;;;7.41;57.51
61128;BME280;47013;42.664;23.242;2023-04-27T00:59:42;93755.13;;;7.42;56.53
61128;BME280;47013;42.664;23.242;2023-04-27T01:02:08;93751.28;;;7.43;56.88
61128;BME280;47013;42.664;23.242;2023-04-27T01:04:33;93753.63;;;7.26;57.34
61128;BME280;47013;42.664;23.242;2023-04-27T01:07:00;93752.09;;;7.32;57.00
61128;BME280;47013;42.664;23.242;2023-04-27T01:09:26;93754.38;;;7.34;57.27
61128;BME280;47013;42.664;23.242;2023-04-27T01:11:51;93760.56;;;7.34;56.81
61128;BME280;47013;42.664;23.242;2023-04-27T01:14:17;93756.72;;;7.32;57.31
61128;BME280;47013;42.664;23.242;2023-04-27T01:16:42;93761.72;;;7.19;57.41
61128;BME280;47013;42.664;23.242;2023-04-27T01:19:08;93764.06;;;6.85;57.91
61128;BME280;47013;42.664;23.242;2023-04-27T01:21:33;93763.28;;;6.88;57.98
61128;BME280;47013;42.664;23.242;2023-04-27T01:23:59;93766.38;;;6.97;58.18
61128;BME280;47013;42.664;23.242;2023-04-27T01:26:24;93763.28;;;6.95;57.53
61128;BME280;47013;42.664;23.242;2023-04-27T01:28:49;93764.44;;;6.98;57.41
61128;BME280;47013;42.664;23.242;2023-04-27T01:31:14;93771.38;;;6.99;57.77
61128;BME280;47013;42.664;23.242;2023-04-27T01:33:40;93762.13;;;6.89;58.07
61128;BME280;47013;42.664;23.242;2023-04-27T01:36:06;93774.09;;;6.92;58.60
61128;BME280;47013;42.664;23.242;2023-04-27T01:38:32;93775.22;;;6.94;57.75
61128;BME280;47013;42.664;23.242;2023-04-27T01:40:57;93775.63;;;6.96;57.92
61128;BME280;47013;42.664;23.242;2023-04-27T01:43:29;93784.09;;;6.91;58.42
61128;BME280;47013;42.664;23.242;2023-04-27T01:45:55;93777.94;;;6.94;57.75
61128;BME280;47013;42.664;23.242;2023-04-27T01:48:20;93780.63;;;6.98;57.89
61128;BME280;47013;42.664;23.242;2023-04-27T01:50:46;93778.69;;;6.98;57.97
61128;BME280;47013;42.664;23.242;2023-04-27T01:53:11;93775.63;;;6.96;57.88
61128;BME280;47013;42.664;23.242;2023-04-27T01:55:36;93781.41;;;6.80;59.15
61128;BME280;47013;42.664;23.242;2023-04-27T01:58:01;93777.94;;;6.80;57.81
61128;BME280;47013;42.664;23.242;2023-04-27T02:00:27;93771.00;;;6.68;58.34
61128;BME280;47013;42.664;23.242;2023-04-27T02:02:52;93774.84;;;6.78;58.40
61128;BME280;47013;42.664;23.242;2023-04-27T02:05:18;93774.06;;;6.81;58.15
61128;BME280;47013;42.664;23.242;2023-04-27T02:07:43;93771.75;;;6.83;57.75
61128;BME280;47013;42.664;23.242;2023-04-27T02:10:09;93784.47;;;6.86;58.15
61128;BME280;47013;42.664;23.242;2023-04-27T02:12:34;93777.53;;;6.85;57.89
61128;BME280;47013;42.664;23.242;2023-04-27T02:15:00;93783.31;;;6.91;57.58
61128;BME280;47013;42.664;23.242;2023-04-27T02:17:27;93782.53;;;6.83;57.29
61128;BME280;47013;42.664;23.242;2023-04-27T02:19:53;93775.59;;;6.71;57.81
61128;BME280;47013;42.664;23.242;2023-04-27T02:22:18;93779.44;;;6.74;57.66
61128;BME280;47013;42.664;23.242;2023-04-27T02:24:43;93783.69;;;6.82;57.52
61128;BME280;47013;42.664;23.242;2023-04-27T02:27:08;93779.47;;;6.81;56.63
61128;BME280;47013;42.664;23.242;2023-04-27T02:29:34;93777.16;;;6.79;56.94
61128;BME280;47013;42.664;23.242;2023-04-27T02:32:02;93794.09;;;6.84;57.36
61128;BME280;47013;42.664;23.242;2023-04-27T02:34:28;93786.00;;;6.87;56.66
61128;BME280;47013;42.664;23.242;2023-04-27T02:36:53;93785.63;;;6.96;56.38
61128;BME280;47013;42.664;23.242;2023-04-27T02:39:18;93789.50;;;6.91;56.32
61128;BME280;47013;42.664;23.242;2023-04-27T02:41:43;93785.25;;;6.83;56.29
61128;BME280;47013;42.664;23.242;2023-04-27T02:44:08;93792.16;;;6.77;58.11
61128;BME280;47013;42.664;23.242;2023-04-27T02:46:34;93792.91;;;6.63;56.86
61128;BME280;47013;42.664;23.242;2023-04-27T02:48:59;93791.38;;;6.73;56.50
61128;BME280;47013;42.664;23.242;2023-04-27T02:51:24;93787.53;;;6.67;56.47
61128;BME280;47013;42.664;23.242;2023-04-27T02:53:51;93799.84;;;6.75;56.59
61128;BME280;47013;42.664;23.242;2023-04-27T02:56:16;93797.94;;;6.79;56.41
61128;BME280;47013;42.664;23.242;2023-04-27T02:58:42;93798.31;;;6.88;56.01
61128;BME280;47013;42.664;23.242;2023-04-27T03:01:07;93801.78;;;6.82;56.51
61128;BME280;47013;42.664;23.242;2023-04-27T03:03:33;93801.78;;;6.82;55.86
61128;BME280;47013;42.664;23.242;2023-04-27T03:05:58;93801.41;;;6.87;56.04
61128;BME280;47013;42.664;23.242;2023-04-27T03:08:24;93807.59;;;6.91;55.90
61128;BME280;47013;42.664;23.242;2023-04-27T03:10:49;93808.72;;;6.93;55.39
61128;BME280;47013;42.664;23.242;2023-04-27T03:13:14;93807.94;;;6.86;55.72
61128;BME280;47013;42.664;23.242;2023-04-27T03:15:40;93809.09;;;6.88;56.18
61128;BME280;47013;42.664;23.242;2023-04-27T03:18:05;93807.19;;;6.92;55.94
61128;BME280;47013;42.664;23.242;2023-04-27T03:20:30;93809.13;;;6.95;54.74
61128;BME280;47013;42.664;23.242;2023-04-27T03:22:56;93810.25;;;6.76;55.98
61128;BME280;47013;42.664;23.242;2023-04-27T03:25:21;93813.34;;;6.78;57.12
61128;BME280;47013;42.664;23.242;2023-04-27T03:27:46;93814.88;;;6.83;55.84
61128;BME280;47013;42.664;23.242;2023-04-27T03:30:12;93819.50;;;6.86;55.77
61128;BME280;47013;42.664;23.242;2023-04-27T03:32:37;93826.81;;;6.78;55.27
61128;BME280;47013;42.664;23.242;2023-04-27T03:35:02;93819.47;;;6.75;55.44
61128;BME280;47013;42.664;23.242;2023-04-27T03:37:28;93821.44;;;6.82;55.96
61128;BME280;47013;42.664;23.242;2023-04-27T03:39:53;93833.75;;;6.90;54.95
61128;BME280;47013;42.664;23.242;2023-04-27T03:42:19;93824.50;;;6.84;54.25
61128;BME280;47013;42.664;23.242;2023-04-27T03:44:44;93830.25;;;6.75;54.82
61128;BME280;47013;42.664;23.242;2023-04-27T03:47:09;93832.56;;;6.66;54.70
61128;BME280;47013;42.664;23.242;2023-04-27T03:49:35;93829.88;;;6.66;54.79
61128;BME280;47013;42.664;23.242;2023-04-27T03:52:00;93834.47;;;6.55;55.17
61128;BME280;47013;42.664;23.242;2023-04-27T03:54:26;93842.16;;;6.64;54.89
61128;BME280;47013;42.664;23.242;2023-04-27T03:56:51;93831.00;;;6.62;53.69
61128;BME280;47013;42.664;23.242;2023-04-27T03:59:16;93836.00;;;6.53;54.04
61128;BME280;47013;42.664;23.242;2023-04-27T04:01:42;93847.94;;;6.52;53.94
61128;BME280;47013;42.664;23.242;2023-04-27T04:04:07;93846.38;;;6.47;54.84
61128;BME280;47013;42.664;23.242;2023-04-27T04:06:32;93848.72;;;6.52;55.35
61128;BME280;47013;42.664;23.242;2023-04-27T04:08:57;93855.25;;;6.62;55.01
61128;BME280;47013;42.664;23.242;2023-04-27T04:11:23;93857.56;;;6.60;54.48
61128;BME280;47013;42.664;23.242;2023-04-27T04:13:48;93869.09;;;6.60;54.73
61128;BME280;47013;42.664;23.242;2023-04-27T04:16:13;93863.38;;;6.69;54.64
61128;BME280;47013;42.664;23.242;2023-04-27T04:18:39;93864.91;;;6.66;54.08
61128;BME280;47013;42.664;23.242;2023-04-27T04:21:04;93867.22;;;6.68;54.79
61128;BME280;47013;42.664;23.242;2023-04-27T04:23:29;93874.16;;;6.72;54.71
61128;BME280;47013;42.664;23.242;2023-04-27T04:25:56;93872.59;;;6.75;54.07
61128;BME280;47013;42.664;23.242;2023-04-27T04:28:22;93875.28;;;6.75;54.20
61128;BME280;47013;42.664;23.242;2023-04-27T04:30:47;93873.00;;;6.77;55.15
61128;BME280;47013;42.664;23.242;2023-04-27T04:33:13;93881.47;;;6.72;54.25
61128;BME280;47013;42.664;23.242;2023-04-27T04:35:39;93871.81;;;6.60;54.70
61128;BME280;47013;42.664;23.242;2023-04-27T04:38:05;93881.78;;;6.49;54.78
61128;BME280;47013;42.664;23.242;2023-04-27T04:40:30;93887.97;;;6.60;55.16
61128;BME280;47013;42.664;23.242;2023-04-27T04:42:56;93878.75;;;6.65;55.21
61128;BME280;47013;42.664;23.242;2023-04-27T04:45:21;93882.19;;;6.62;54.45
61128;BME280;47013;42.664;23.242;2023-04-27T04:47:47;93884.50;;;6.63;54.54
61128;BME280;47013;42.664;23.242;2023-04-27T04:50:13;93882.97;;;6.62;53.86
61128;BME280;47013;42.664;23.242;2023-04-27T04:52:38;93888.00;;;6.67;54.13
61128;BME280;47013;42.664;23.242;2023-04-27T04:55:04;93893.78;;;6.76;54.41
61128;BME280;47013;42.664;23.242;2023-04-27T04:57:29;93902.28;;;6.78;54.34
61128;BME280;47013;42.664;23.242;2023-04-27T04:59:54;93901.84;;;6.76;53.88
61128;BME280;47013;42.664;23.242;2023-04-27T05:02:20;93903.78;;;6.72;53.78
61128;BME280;47013;42.664;23.242;2023-04-27T05:04:45;93908.81;;;6.77;53.89
61128;BME280;47013;42.664;23.242;2023-04-27T05:07:11;93908.81;;;6.77;53.98
61128;BME280;47013;42.664;23.242;2023-04-27T05:09:36;93911.13;;;6.90;54.55
61128;BME280;47013;42.664;23.242;2023-04-27T05:12:02;93908.06;;;7.02;54.57
61128;BME280;47013;42.664;23.242;2023-04-27T05:14:27;93913.47;;;7.09;54.13
61128;BME280;47013;42.664;23.242;2023-04-27T05:16:52;93914.28;;;7.17;53.64
61128;BME280;47013;42.664;23.242;2023-04-27T05:19:18;93914.28;;;7.20;53.26
61128;BME280;47013;42.664;23.242;2023-04-27T05:21:44;93924.28;;;7.27;53.45
61128;BME280;47013;42.664;23.242;2023-04-27T05:24:10;93922.00;;;7.32;54.31
61128;BME280;47013;42.664;23.242;2023-04-27T05:26:35;93925.44;;;7.40;53.62
61128;BME280;47013;42.664;23.242;2023-04-27T05:29:01;93927.00;;;7.48;53.61
61128;BME280;47013;42.664;23.242;2023-04-27T05:31:26;93928.91;;;7.55;53.49
61128;BME280;47013;42.664;23.242;2023-04-27T05:33:51;93930.06;;;7.54;53.59
61128;BME280;47013;42.664;23.242;2023-04-27T05:36:17;93931.63;;;7.62;52.50
61128;BME280;47013;42.664;23.242;2023-04-27T05:38:42;93930.44;;;7.66;52.86
61128;BME280;47013;42.664;23.242;2023-04-27T05:41:07;93939.69;;;7.80;52.56
61128;BME280;47013;42.664;23.242;2023-04-27T05:43:33;93935.84;;;7.84;52.63
61128;BME280;47013;42.664;23.242;2023-04-27T05:45:59;93940.47;;;7.80;52.31
61128;BME280;47013;42.664;23.242;2023-04-27T05:48:24;93942.41;;;7.76;52.20
61128;BME280;47013;42.664;23.242;2023-04-27T05:50:57;93931.63;;;7.73;55.49
61128;BME280;47013;42.664;23.242;2023-04-27T05:53:22;93942.78;;;7.85;54.19
61128;BME280;47013;42.664;23.242;2023-04-27T05:55:47;93945.88;;;7.94;54.55
61128;BME280;47013;42.664;23.242;2023-04-27T05:58:13;93940.81;;;8.04;53.71
61128;BME280;47013;42.664;23.242;2023-04-27T06:00:38;93946.22;;;8.07;53.67
61128;BME280;47013;42.664;23.242;2023-04-27T06:03:03;93941.22;;;8.09;53.42
61128;BME280;47013;42.664;23.242;2023-04-27T06:11:13;93946.19;;;8.25;54.02
61128;BME280;47013;42.664;23.242;2023-04-27T06:13:38;93949.28;;;8.34;53.59
61128;BME280;47013;42.664;23.242;2023-04-27T06:16:03;93941.16;;;8.31;52.23
61128;BME280;47013;42.664;23.242;2023-04-27T06:18:28;93943.50;;;8.25;53.45
61128;BME280;47013;42.664;23.242;2023-04-27T06:20:58;93941.16;;;8.31;52.19
61128;BME280;47013;42.664;23.242;2023-04-27T06:23:24;93944.63;;;8.27;52.54
61128;BME280;47013;42.664;23.242;2023-04-27T06:25:49;93937.69;;;8.19;52.69
61128;BME280;47013;42.664;23.242;2023-04-27T06:28:14;93942.34;;;8.22;52.20
61128;BME280;47013;42.664;23.242;2023-04-27T06:30:39;93938.88;;;8.22;52.88
61128;BME280;47013;42.664;23.242;2023-04-27T06:33:05;93945.03;;;8.19;52.63
61128;BME280;47013;42.664;23.242;2023-04-27T06:35:30;93936.56;;;8.17;52.16
61128;BME280;47013;42.664;23.242;2023-04-27T06:37:55;93936.19;;;8.22;52.00
61128;BME280;47013;42.664;23.242;2023-04-27T06:40:23;93943.09;;;8.26;52.50
61128;BME280;47013;42.664;23.242;2023-04-27T06:42:48;93935.75;;;8.31;51.38
61128;BME280;47013;42.664;23.242;2023-04-27T06:45:13;93930.38;;;8.34;50.65
61128;BME280;47013;42.664;23.242;2023-04-27T06:47:38;93929.59;;;8.26;51.13
61128;BME280;47013;42.664;23.242;2023-04-27T06:50:04;93929.22;;;8.35;51.79
61128;BME280;47013;42.664;23.242;2023-04-27T06:52:30;93926.09;;;8.40;51.04
61128;BME280;47013;42.664;23.242;2023-04-27T06:54:55;93930.75;;;8.36;51.41
61128;BME280;47013;42.664;23.242;2023-04-27T06:57:21;93926.47;;;8.42;51.63
61128;BME280;47013;42.664;23.242;2023-04-27T06:59:47;93932.19;;;8.58;51.04
61128;BME280;47013;42.664;23.242;2023-04-27T07:02:12;93924.50;;;8.61;49.92
61128;BME280;47013;42.664;23.242;2023-04-27T07:04:37;93918.69;;;8.62;50.37
61128;BME280;47013;42.664;23.242;2023-04-27T07:07:02;93926.41;;;8.64;52.02
61128;BME280;47013;42.664;23.242;2023-04-27T07:09:28;93917.59;;;8.45;50.94
61128;BME280;47013;42.664;23.242;2023-04-27T07:11:53;93923.38;;;8.51;50.10
61128;BME280;47013;42.664;23.242;2023-04-27T07:14:19;93921.41;;;8.55;50.44
61128;BME280;47013;42.664;23.242;2023-04-27T07:16:47;93917.94;;;8.54;49.96
61128;BME280;47013;42.664;23.242;2023-04-27T07:19:12;93919.47;;;8.55;49.90
61128;BME280;47013;42.664;23.242;2023-04-27T07:21:37;93917.47;;;8.70;50.45
61128;BME280;47013;42.664;23.242;2023-04-27T07:24:03;93922.16;;;8.63;50.20
61128;BME280;47013;42.664;23.242;2023-04-27T07:26:28;93927.53;;;8.70;49.95
61128;BME280;47013;42.664;23.242;2023-04-27T07:28:55;93926.31;;;8.81;50.37
61128;BME280;47013;42.664;23.242;2023-04-27T07:31:21;93919.28;;;8.95;50.46
61128;BME280;47013;42.664;23.242;2023-04-27T07:33:46;93920.66;;;9.24;49.16
61128;BME280;47013;42.664;23.242;2023-04-27T07:36:11;93920.59;;;9.38;47.05
61128;BME280;47013;42.664;23.242;2023-04-27T07:38:37;93926.28;;;9.48;47.25
61128;BME280;47013;42.664;23.242;2023-04-27T07:41:02;93924.34;;;9.48;47.34
61128;BME280;47013;42.664;23.242;2023-04-27T07:43:29;93922.81;;;9.51;47.10
61128;BME280;47013;42.664;23.242;2023-04-27T07:45:56;93921.53;;;9.66;46.98
61128;BME280;47013;42.664;23.242;2023-04-27T07:48:22;93911.38;;;9.77;46.90
61128;BME280;47013;42.664;23.242;2023-04-27T07:50:47;93915.72;;;10.09;46.21
61128;BME280;47013;42.664;23.242;2023-04-27T07:53:12;93912.03;;;10.33;44.78
61128;BME280;47013;42.664;23.242;2023-04-27T07:55:38;93916.09;;;10.48;44.10
61128;BME280;47013;42.664;23.242;2023-04-27T07:58:03;93910.56;;;10.59;42.65
61128;BME280;47013;42.664;23.242;2023-04-27T08:00:28;93910.28;;;10.80;43.52
61128;BME280;47013;42.664;23.242;2023-04-27T08:02:54;93914.66;;;11.01;43.69
61128;BME280;47013;42.664;23.242;2023-04-27T08:05:19;93905.63;;;11.11;43.17
61128;BME280;47013;42.664;23.242;2023-04-27T08:07:45;93911.47;;;11.10;42.95
61128;BME280;47013;42.664;23.242;2023-04-27T08:10:10;93911.50;;;10.76;42.88
61128;BME280;47013;42.664;23.242;2023-04-27T08:12:35;93920.69;;;10.55;43.82
61128;BME280;47013;42.664;23.242;2023-04-27T08:15:01;93922.00;;;10.40;44.13
61128;BME280;47013;42.664;23.242;2023-04-27T08:17:26;93914.38;;;10.31;44.37
61128;BME280;47013;42.664;23.242;2023-04-27T08:19:51;93914.56;;;10.47;44.43
61128;BME280;47013;42.664;23.242;2023-04-27T08:22:17;93910.88;;;10.64;43.16
61128;BME280;47013;42.664;23.242;2023-04-27T08:24:42;93911.47;;;10.79;43.50
61128;BME280;47013;42.664;23.242;2023-04-27T08:27:07;93920.66;;;10.89;42.49
61128;BME280;47013;42.664;23.242;2023-04-27T08:29:33;93910.72;;;11.06;42.49
61128;BME280;47013;42.664;23.242;2023-04-27T08:31:59;93918.31;;;11.18;42.99
61128;BME280;47013;42.664;23.242;2023-04-27T08:34:25;93912.44;;;11.23;41.54
61128;BME280;47013;42.664;23.242;2023-04-27T08:36:50;93918.63;;;11.23;41.94
61128;BME280;47013;42.664;23.242;2023-04-27T08:39:16;93919.66;;;11.33;41.59
61128;BME280;47013;42.664;23.242;2023-04-27T08:41:42;93911.06;;;11.38;41.71
61128;BME280;47013;42.664;23.242;2023-04-27T08:44:08;93916.97;;;11.30;41.14
61128;BME280;47013;42.664;23.242;2023-04-27T08:46:33;93918.63;;;11.23;42.29
61128;BME280;47013;42.664;23.242;2023-04-27T08:48:58;93916.34;;;11.22;40.49
61128;BME280;47013;42.664;23.242;2023-04-27T08:51:23;93918.47;;;11.07;42.81
61128;BME280;47013;42.664;23.242;2023-04-27T08:53:52;93924.63;;;11.11;41.25
61128;BME280;47013;42.664;23.242;2023-04-27T08:56:17;93916.00;;;11.16;41.05
61128;BME280;47013;42.664;23.242;2023-04-27T08:58:43;93925.66;;;11.21;41.17
61128;BME280;47013;42.664;23.242;2023-04-27T09:01:08;93913.28;;;11.43;40.47
61128;BME280;47013;42.664;23.242;2023-04-27T09:03:34;93916.31;;;11.49;40.70
61128;BME280;47013;42.664;23.242;2023-04-27T09:06:00;93911.84;;;11.62;39.71
61128;BME280;47013;42.664;23.242;2023-04-27T09:08:25;93903.75;;;11.86;39.54
61128;BME280;47013;42.664;23.242;2023-04-27T09:10:51;93912.47;;;11.97;41.32
61128;BME280;47013;42.664;23.242;2023-04-27T09:13:17;93904.03;;;11.91;40.09
61128;BME280;47013;42.664;23.242;2023-04-27T09:15:49;93905.16;;;11.94;39.79
61128;BME280;47013;42.664;23.242;2023-04-27T09:18:19;93911.06;;;11.89;39.67
61128;BME280;47013;42.664;23.242;2023-04-27T09:20:51;93909.22;;;11.82;39.41
61128;BME280;47013;42.664;23.242;2023-04-27T09:23:26;93905.25;;;12.10;41.50
61128;BME280;47013;42.664;23.242;2023-04-27T09:25:52;93906.44;;;12.52;38.70
61128;BME280;47013;42.664;23.242;2023-04-27T09:28:18;93903.69;;;12.72;38.87
61128;BME280;47013;42.664;23.242;2023-04-27T09:30:50;93906.28;;;12.59;39.14
61128;BME280;47013;42.664;23.242;2023-04-27T09:33:21;93897.56;;;12.48;38.42
61128;BME280;47013;42.664;23.242;2023-04-27T09:35:46;93902.16;;;12.31;38.10
61128;BME280;47013;42.664;23.242;2023-04-27T09:38:12;93897.59;;;12.05;39.27
61128;BME280;47013;42.664;23.242;2023-04-27T09:40:38;93893.59;;;12.09;41.26
61128;BME280;47013;42.664;23.242;2023-04-27T09:43:04;93888.41;;;12.58;38.68
61128;BME280;47013;42.664;23.242;2023-04-27T09:45:31;93885.47;;;12.89;36.81
61128;BME280;47013;42.664;23.242;2023-04-27T09:47:57;93888.63;;;13.23;36.91
61128;BME280;47013;42.664;23.242;2023-04-27T09:50:22;93875.03;;;13.23;37.59
61128;BME280;47013;42.664;23.242;2023-04-27T09:52:47;93881.78;;;13.51;37.43
61128;BME280;47013;42.664;23.242;2023-04-27T09:55:17;93883.13;;;13.92;34.94
61128;BME280;47013;42.664;23.242;2023-04-27T09:57:47;93882.31;;;14.24;33.63
61128;BME280;47013;42.664;23.242;2023-04-27T10:00:30;93880.91;;;13.87;34.08
61128;BME280;47013;42.664;23.242;2023-04-27T10:08:15;93875.69;;;14.09;35.14
61128;BME280;47013;42.664;23.242;2023-04-27T10:10:41;93876.38;;;14.42;33.43
61128;BME280;47013;42.664;23.242;2023-04-27T10:13:07;93871.13;;;14.64;31.31
61128;BME280;47013;42.664;23.242;2023-04-27T10:15:33;93876.97;;;14.91;31.01
61128;BME280;47013;42.664;23.242;2023-04-27T10:18:03;93868.59;;;15.11;29.82
61128;BME280;47013;42.664;23.242;2023-04-27T10:20:30;93866.97;;;15.39;29.75
61128;BME280;47013;42.664;23.242;2023-04-27T10:22:55;93870.69;;;15.32;31.03
61128;BME280;47013;42.664;23.242;2023-04-27T10:25:21;93869.47;;;15.08;31.38
61128;BME280;47013;42.664;23.242;2023-04-27T10:27:54;93879.50;;;14.86;32.05
61128;BME280;47013;42.664;23.242;2023-04-27T10:30:21;93866.22;;;14.59;31.25
61128;BME280;47013;42.664;23.242;2023-04-27T10:32:56;93872.03;;;14.44;31.75
61128;BME280;47013;42.664;23.242;2023-04-27T10:35:30;93865.09;;;14.56;32.42
61128;BME280;47013;42.664;23.242;2023-04-27T10:38:03;93864.66;;;14.99;30.96
61128;BME280;47013;42.664;23.242;2023-04-27T10:40:31;93860.06;;;14.96;31.57
61128;BME280;47013;42.664;23.242;2023-04-27T10:43:06;93864.63;;;14.74;31.52
61128;BME280;47013;42.664;23.242;2023-04-27T10:45:32;93870.50;;;14.72;31.09
61128;BME280;47013;42.664;23.242;2023-04-27T10:47:59;93873.28;;;14.85;32.07
61128;BME280;47013;42.664;23.242;2023-04-27T10:50:24;93860.84;;;15.22;31.23
61128;BME280;47013;42.664;23.242;2023-04-27T10:52:50;93866.41;;;15.57;30.36
61128;BME280;47013;42.664;23.242;2023-04-27T10:55:19;93868.06;;;15.80;28.92
61128;BME280;47013;42.664;23.242;2023-04-27T10:57:52;93864.41;;;15.96;28.63
61128;BME280;47013;42.664;23.242;2023-04-27T11:00:37;93866.28;;;15.86;29.68
61128;BME280;47013;42.664;23.242;2023-04-27T11:05:38;93862.81;;;15.73;29.04
61128;BME280;47013;42.664;23.242;2023-04-27T11:08:06;93854.91;;;15.87;28.91
61128;BME280;47013;42.664;23.242;2023-04-27T11:10:32;93856.00;;;15.90;28.45
61128;BME280;47013;42.664;23.242;2023-04-27T11:13:04;93857.13;;;15.67;29.26
61128;BME280;47013;42.664;23.242;2023-04-27T11:15:30;93868.38;;;15.56;29.48
61128;BME280;47013;42.664;23.242;2023-04-27T11:18:05;93863.91;;;15.50;28.91
61128;BME280;47013;42.664;23.242;2023-04-27T11:20:30;93862.59;;;15.42;30.06
61128;BME280;47013;42.664;23.242;2023-04-27T11:22:56;93862.47;;;15.32;28.87
61128;BME280;47013;42.664;23.242;2023-04-27T11:25:27;93863.47;;;15.39;29.61
61128;BME280;47013;42.664;23.242;2023-04-27T11:27:53;93863.56;;;15.22;29.84
61128;BME280;47013;42.664;23.242;2023-04-27T11:30:21;93856.66;;;14.92;30.85
61128;BME280;47013;42.664;23.242;2023-04-27T11:32:47;93863.78;;;15.02;30.86
61128;BME280;47013;42.664;23.242;2023-04-27T11:35:13;93859.88;;;15.16;31.83
61128;BME280;47013;42.664;23.242;2023-04-27T11:37:38;93873.72;;;15.22;31.46
61128;BME280;47013;42.664;23.242;2023-04-27T11:40:03;93878.00;;;15.35;30.92
61128;BME280;47013;42.664;23.242;2023-04-27T11:42:29;93866.22;;;15.51;30.70
61128;BME280;47013;42.664;23.242;2023-04-27T11:44:59;93869.41;;;15.62;30.39
61128;BME280;47013;42.664;23.242;2023-04-27T11:47:26;93866.66;;;15.62;30.24
61128;BME280;47013;42.664;23.242;2023-04-27T11:49:53;93869.06;;;15.60;30.08
61128;BME280;47013;42.664;23.242;2023-04-27T11:52:19;93870.34;;;15.56;31.14
61128;BME280;47013;42.664;23.242;2023-04-27T11:54:51;93876.78;;;15.49;30.37
61128;BME280;47013;42.664;23.242;2023-04-27T11:57:18;93878.41;;;15.09;30.23
61128;BME280;47013;42.664;23.242;2023-04-27T11:59:48;93872.88;;;15.25;30.74
61128;BME280;47013;42.664;23.242;2023-04-27T12:02:13;93871.75;;;15.48;30.42
61128;BME280;47013;42.664;23.242;2023-04-27T12:04:38;93878.88;;;15.45;30.41
61128;BME280;47013;42.664;23.242;2023-04-27T12:07:03;93872.19;;;15.21;31.12
61128;BME280;47013;42.664;23.242;2023-04-27T12:09:29;93880.06;;;15.06;31.37
61128;BME280;47013;42.664;23.242;2023-04-27T12:11:54;93874.16;;;15.20;32.60
61128;BME280;47013;42.664;23.242;2023-04-27T12:14:20;93874.16;;;15.46;31.87
61128;BME280;47013;42.664;23.242;2023-04-27T12:16:48;93878.34;;;15.50;30.86
61128;BME280;47013;42.664;23.242;2023-04-27T12:19:16;93891.53;;;15.14;30.73
61128;BME280;47013;42.664;23.242;2023-04-27T12:21:42;93894.69;;;14.99;31.35
61128;BME280;47013;42.664;23.242;2023-04-27T12:24:07;93894.56;;;14.90;30.75
61128;BME280;47013;42.664;23.242;2023-04-27T12:26:33;93891.97;;;14.70;31.40
61128;BME280;47013;42.664;23.242;2023-04-27T12:28:58;93895.03;;;14.60;31.32
61128;BME280;47013;42.664;23.242;2023-04-27T12:31:23;93887.56;;;14.48;31.64
61128;BME280;47013;42.664;23.242;2023-04-27T12:33:49;93888.66;;;14.50;33.00
61128;BME280;47013;42.664;23.242;2023-04-27T12:36:15;93887.06;;;14.65;32.19
61128;BME280;47013;42.664;23.242;2023-04-27T12:38:41;93889.22;;;14.58;31.65
61128;BME280;47013;42.664;23.242;2023-04-27T12:41:06;93887.06;;;14.65;32.40
61128;BME280;47013;42.664;23.242;2023-04-27T12:43:31;93896.16;;;14.75;33.03
61128;BME280;47013;42.664;23.242;2023-04-27T12:45:56;93885.09;;;14.66;31.89
61128;BME280;47013;42.664;23.242;2023-04-27T12:48:22;93891.53;;;14.43;32.41
61128;BME280;47013;42.664;23.242;2023-04-27T12:50:47;93890.78;;;14.42;32.59
61128;BME280;47013;42.664;23.242;2023-04-27T12:53:12;93891.72;;;14.52;31.96
61128;BME280;47013;42.664;23.242;2023-04-27T12:55:38;93898.03;;;14.49;31.75
61128;BME280;47013;42.664;23.242;2023-04-27T12:58:03;93889.41;;;14.22;31.97
61128;BME280;47013;42.664;23.242;2023-04-27T13:00:29;93883.78;;;14.12;32.78
61128;BME280;47013;42.664;23.242;2023-04-27T13:02:54;93883.69;;;14.16;33.32